sensor_id;sensor_type;location;lat;lon;timestamp;temperature;humidity
13665;DHT22;6905;50.770;6.730;2023-02-01T00:01:45;6.70;99.90
13665;DHT22;6905;50.770;6.730;2023-02-01T00:04:29;6.70;99.90
13665;DHT22;6905;50.770;6.730;2023-02-01T00:06:59;6.70;99.90
13665;DHT22;6905;50.770;6.730;2023-02-01T00:09:44;6.60;99.90
13665;DHT22;6905;50.770;6.730;2023-02-01T00:12:19;6.60;99.90
13665;DHT22;6905;50.770;6.730;2023-02-01T00:14:55;6.60;99.90
13665;DHT22;6905;50.770;6.730;2023-02-01T00:17:35;6.60;99.90
13665;DHT22;6905;50.770;6.730;2023-02-01T00:20:23;6.60;99.90
13665;DHT22;6905;50.770;6.730;2023-02-01T00:22:57;6.60;99.90
13665;DHT22;6905;50.770;6.730;2023-02-01T00:25:33;6.60;99.90
13665;DHT22;6905;50.770;6.730;2023-02-01T00:28:18;6.50;99.90
13665;DHT22;6905;50.770;6.730;2023-02-01T00:30:47;6.60;99.90
13665;DHT22;6905;50.770;6.730;2023-02-01T00:33:39;6.60;99.90
13665;DHT22;6905;50.770;6.730;2023-02-01T00:36:16;6.50;99.90
13665;DHT22;6905;50.770;6.730;2023-02-01T00:38:47;6.50;99.90
13665;DHT22;6905;50.770;6.730;2023-02-01T00:41:16;6.50;99.90
13665;DHT22;6905;50.770;6.730;2023-02-01T00:43:52;6.50;99.90
13665;DHT22;6905;50.770;6.730;2023-02-01T00:46:21;6.50;99.90
13665;DHT22;6905;50.770;6.730;2023-02-01T00:48:48;6.50;99.90
13665;DHT22;6905;50.770;6.730;2023-02-01T00:51:20;6.50;99.90
13665;DHT22;6905;50.770;6.730;2023-02-01T00:53:55;6.50;99.90
13665;DHT22;6905;50.770;6.730;2023-02-01T00:56:28;6.50;99.90
13665;DHT22;6905;50.770;6.730;2023-02-01T00:59:02;6.50;99.90
13665;DHT22;6905;50.770;6.730;2023-02-01T01:01:33;6.50;99.90
13665;DHT22;6905;50.770;6.730;2023-02-01T01:04:00;6.40;99.90
13665;DHT22;6905;50.770;6.730;2023-02-01T01:06:32;6.40;99.90
13665;DHT22;6905;50.770;6.730;2023-02-01T01:09:01;6.40;99.90
13665;DHT22;6905;50.770;6.730;2023-02-01T01:11:30;6.40;99.90
13665;DHT22;6905;50.770;6.730;2023-02-01T01:13:58;6.40;99.90
13665;DHT22;6905;50.770;6.730;2023-02-01T01:16:30;6.40;99.90
13665;DHT22;6905;50.770;6.730;2023-02-01T01:18:58;6.40;99.90
13665;DHT22;6905;50.770;6.730;2023-02-01T01:21:30;6.40;99.90
13665;DHT22;6905;50.770;6.730;2023-02-01T01:24:00;6.40;99.90
13665;DHT22;6905;50.770;6.730;2023-02-01T01:26:30;6.40;99.90
13665;DHT22;6905;50.770;6.730;2023-02-01T01:29:02;6.40;99.90
13665;DHT22;6905;50.770;6.730;2023-02-01T01:31:33;6.40;99.90
13665;DHT22;6905;50.770;6.730;2023-02-01T01:34:03;6.40;99.90
13665;DHT22;6905;50.770;6.730;2023-02-01T01:36:41;6.40;99.90
13665;DHT22;6905;50.770;6.730;2023-02-01T01:39:10;6.40;99.90
13665;DHT22;6905;50.770;6.730;2023-02-01T01:41:50;6.40;99.90
13665;DHT22;6905;50.770;6.730;2023-02-01T01:47:15;6.40;99.90
13665;DHT22;6905;50.770;6.730;2023-02-01T01:49:45;6.40;99.90
13665;DHT22;6905;50.770;6.730;2023-02-01T01:52:20;6.40;99.90
13665;DHT22;6905;50.770;6.730;2023-02-01T01:54:56;6.50;99.90
13665;DHT22;6905;50.770;6.730;2023-02-01T01:57:39;6.40;99.90
13665;DHT22;6905;50.770;6.730;2023-02-01T02:00:12;6.50;99.90
13665;DHT22;6905;50.770;6.730;2023-02-01T02:02:54;6.50;99.90
13665;DHT22;6905;50.770;6.730;2023-02-01T02:05:30;6.40;99.90
13665;DHT22;6905;50.770;6.730;2023-02-01T02:08:12;6.40;99.90
13665;DHT22;6905;50.770;6.730;2023-02-01T02:10:53;6.40;99.90
13665;DHT22;6905;50.770;6.730;2023-02-01T02:13:44;6.40;99.90
13665;DHT22;6905;50.770;6.730;2023-02-01T02:16:30;6.40;99.90
13665;DHT22;6905;50.770;6.730;2023-02-01T02:19:22;6.50;99.90
13665;DHT22;6905;50.770;6.730;2023-02-01T02:25:23;6.50;99.90
13665;DHT22;6905;50.770;6.730;2023-02-01T02:28:08;6.50;99.90
13665;DHT22;6905;50.770;6.730;2023-02-01T02:31:00;6.50;99.90
13665;DHT22;6905;50.770;6.730;2023-02-01T02:36:39;6.40;99.90
13665;DHT22;6905;50.770;6.730;2023-02-01T02:39:34;6.40;99.90
13665;DHT22;6905;50.770;6.730;2023-02-01T02:42:11;6.50;99.90
13665;DHT22;6905;50.770;6.730;2023-02-01T02:44:58;6.40;99.90
13665;DHT22;6905;50.770;6.730;2023-02-01T02:47:48;6.50;99.90
13665;DHT22;6905;50.770;6.730;2023-02-01T02:50:32;6.50;99.90
13665;DHT22;6905;50.770;6.730;2023-02-01T02:59:22;6.40;99.90
13665;DHT22;6905;50.770;6.730;2023-02-01T03:02:11;6.40;99.90
13665;DHT22;6905;50.770;6.730;2023-02-01T03:04:56;6.40;99.90
13665;DHT22;6905;50.770;6.730;2023-02-01T03:07:49;6.50;99.90
13665;DHT22;6905;50.770;6.730;2023-02-01T03:13:20;6.40;99.90
13665;DHT22;6905;50.770;6.730;2023-02-01T03:16:06;6.40;99.90
13665;DHT22;6905;50.770;6.730;2023-02-01T03:18:36;6.40;99.90
13665;DHT22;6905;50.770;6.730;2023-02-01T03:21:22;6.40;99.90
13665;DHT22;6905;50.770;6.730;2023-02-01T03:23:53;6.50;99.90
13665;DHT22;6905;50.770;6.730;2023-02-01T03:26:26;6.40;99.90
13665;DHT22;6905;50.770;6.730;2023-02-01T03:29:12;6.50;99.90
13665;DHT22;6905;50.770;6.730;2023-02-01T03:31:44;6.50;99.90
13665;DHT22;6905;50.770;6.730;2023-02-01T03:34:37;6.40;99.90
13665;DHT22;6905;50.770;6.730;2023-02-01T03:37:05;6.40;99.90
13665;DHT22;6905;50.770;6.730;2023-02-01T03:39:34;6.40;99.90
13665;DHT22;6905;50.770;6.730;2023-02-01T03:42:04;6.40;99.90
13665;DHT22;6905;50.770;6.730;2023-02-01T03:44:34;6.40;99.90
13665;DHT22;6905;50.770;6.730;2023-02-01T03:47:05;6.40;99.90
13665;DHT22;6905;50.770;6.730;2023-02-01T03:49:38;6.40;99.90
13665;DHT22;6905;50.770;6.730;2023-02-01T03:52:08;6.40;99.90
13665;DHT22;6905;50.770;6.730;2023-02-01T03:54:44;6.40;99.90
13665;DHT22;6905;50.770;6.730;2023-02-01T03:57:29;6.30;99.90
13665;DHT22;6905;50.770;6.730;2023-02-01T04:00:04;6.30;99.90
13665;DHT22;6905;50.770;6.730;2023-02-01T04:02:49;6.30;99.90
13665;DHT22;6905;50.770;6.730;2023-02-01T04:05:21;6.20;99.90
13665;DHT22;6905;50.770;6.730;2023-02-01T04:08:04;6.20;99.90
13665;DHT22;6905;50.770;6.730;2023-02-01T04:10:44;6.20;99.90
13665;DHT22;6905;50.770;6.730;2023-02-01T04:13:23;6.10;99.90
13665;DHT22;6905;50.770;6.730;2023-02-01T04:16:04;6.10;99.90
13665;DHT22;6905;50.770;6.730;2023-02-01T04:18:48;6.10;99.90
13665;DHT22;6905;50.770;6.730;2023-02-01T04:21:25;6.00;99.90
13665;DHT22;6905;50.770;6.730;2023-02-01T04:23:59;6.00;99.90
13665;DHT22;6905;50.770;6.730;2023-02-01T04:26:27;6.00;99.90
13665;DHT22;6905;50.770;6.730;2023-02-01T04:29:08;6.00;99.90
13665;DHT22;6905;50.770;6.730;2023-02-01T04:31:47;5.90;99.90
13665;DHT22;6905;50.770;6.730;2023-02-01T04:34:25;5.90;99.90
13665;DHT22;6905;50.770;6.730;2023-02-01T04:37:05;5.90;99.90
13665;DHT22;6905;50.770;6.730;2023-02-01T04:39:43;5.90;99.90
13665;DHT22;6905;50.770;6.730;2023-02-01T04:42:12;5.80;99.90
13665;DHT22;6905;50.770;6.730;2023-02-01T04:44:42;5.80;99.90
13665;DHT22;6905;50.770;6.730;2023-02-01T04:47:11;5.80;99.90
13665;DHT22;6905;50.770;6.730;2023-02-01T04:49:42;5.70;99.90
13665;DHT22;6905;50.770;6.730;2023-02-01T04:52:13;5.70;99.90
13665;DHT22;6905;50.770;6.730;2023-02-01T04:54:45;5.70;99.90
13665;DHT22;6905;50.770;6.730;2023-02-01T04:57:19;5.70;99.90
13665;DHT22;6905;50.770;6.730;2023-02-01T04:59:48;5.70;99.90
13665;DHT22;6905;50.770;6.730;2023-02-01T05:02:16;5.60;99.90
13665;DHT22;6905;50.770;6.730;2023-02-01T05:04:49;5.60;99.90
13665;DHT22;6905;50.770;6.730;2023-02-01T05:07:30;5.60;99.90
13665;DHT22;6905;50.770;6.730;2023-02-01T05:10:00;5.60;99.90
13665;DHT22;6905;50.770;6.730;2023-02-01T05:12:26;5.60;99.90
13665;DHT22;6905;50.770;6.730;2023-02-01T05:15:11;5.70;99.90
13665;DHT22;6905;50.770;6.730;2023-02-01T05:17:37;5.60;99.90
13665;DHT22;6905;50.770;6.730;2023-02-01T05:20:15;5.60;99.90
13665;DHT22;6905;50.770;6.730;2023-02-01T05:22:47;5.60;99.90
13665;DHT22;6905;50.770;6.730;2023-02-01T05:25:16;5.60;99.90
13665;DHT22;6905;50.770;6.730;2023-02-01T05:27:47;5.60;99.90
13665;DHT22;6905;50.770;6.730;2023-02-01T05:30:16;5.60;99.90
13665;DHT22;6905;50.770;6.730;2023-02-01T05:33:02;5.60;99.90
13665;DHT22;6905;50.770;6.730;2023-02-01T05:35:39;5.50;99.90
13665;DHT22;6905;50.770;6.730;2023-02-01T05:38:08;5.50;99.90
13665;DHT22;6905;50.770;6.730;2023-02-01T05:40:37;5.50;99.90
13665;DHT22;6905;50.770;6.730;2023-02-01T05:43:04;5.50;99.90
13665;DHT22;6905;50.770;6.730;2023-02-01T05:45:32;5.50;99.90
13665;DHT22;6905;50.770;6.730;2023-02-01T05:48:00;5.50;99.90
13665;DHT22;6905;50.770;6.730;2023-02-01T05:50:29;5.50;99.90
13665;DHT22;6905;50.770;6.730;2023-02-01T05:52:57;5.40;99.90
13665;DHT22;6905;50.770;6.730;2023-02-01T05:55:26;5.50;99.90
13665;DHT22;6905;50.770;6.730;2023-02-01T05:57:56;5.40;99.90
13665;DHT22;6905;50.770;6.730;2023-02-01T06:00:23;5.40;99.90
13665;DHT22;6905;50.770;6.730;2023-02-01T06:02:55;5.40;99.90
13665;DHT22;6905;50.770;6.730;2023-02-01T06:05:22;5.40;99.90
13665;DHT22;6905;50.770;6.730;2023-02-01T06:07:50;5.40;99.90
13665;DHT22;6905;50.770;6.730;2023-02-01T06:10:18;5.40;99.90
13665;DHT22;6905;50.770;6.730;2023-02-01T06:12:46;5.40;99.90
13665;DHT22;6905;50.770;6.730;2023-02-01T06:15:30;5.30;99.90
13665;DHT22;6905;50.770;6.730;2023-02-01T06:18:07;5.30;99.90
13665;DHT22;6905;50.770;6.730;2023-02-01T06:21:05;5.30;99.90
13665;DHT22;6905;50.770;6.730;2023-02-01T06:23:34;5.30;99.90
13665;DHT22;6905;50.770;6.730;2023-02-01T06:26:12;5.30;99.90
13665;DHT22;6905;50.770;6.730;2023-02-01T06:28:59;5.20;99.90
13665;DHT22;6905;50.770;6.730;2023-02-01T06:31:36;5.20;99.90
13665;DHT22;6905;50.770;6.730;2023-02-01T06:34:27;5.20;99.90
13665;DHT22;6905;50.770;6.730;2023-02-01T06:37:01;5.20;99.90
13665;DHT22;6905;50.770;6.730;2023-02-01T06:39:28;5.20;99.90
13665;DHT22;6905;50.770;6.730;2023-02-01T06:42:04;5.20;99.90
13665;DHT22;6905;50.770;6.730;2023-02-01T06:44:34;5.10;99.90
13665;DHT22;6905;50.770;6.730;2023-02-01T06:47:04;5.10;99.90
13665;DHT22;6905;50.770;6.730;2023-02-01T06:49:46;5.10;99.90
13665;DHT22;6905;50.770;6.730;2023-02-01T06:52:24;5.10;99.90
13665;DHT22;6905;50.770;6.730;2023-02-01T06:54:51;5.10;99.90
13665;DHT22;6905;50.770;6.730;2023-02-01T06:57:28;5.10;99.90
13665;DHT22;6905;50.770;6.730;2023-02-01T07:00:02;5.10;99.90
13665;DHT22;6905;50.770;6.730;2023-02-01T07:05:37;5.00;99.90
13665;DHT22;6905;50.770;6.730;2023-02-01T07:08:05;5.00;99.90
13665;DHT22;6905;50.770;6.730;2023-02-01T07:10:33;5.00;99.90
13665;DHT22;6905;50.770;6.730;2023-02-01T07:13:08;5.00;99.90
13665;DHT22;6905;50.770;6.730;2023-02-01T07:15:49;5.00;99.90
13665;DHT22;6905;50.770;6.730;2023-02-01T07:18:20;5.00;99.90
13665;DHT22;6905;50.770;6.730;2023-02-01T07:21:01;5.00;99.90
13665;DHT22;6905;50.770;6.730;2023-02-01T07:23:36;4.90;99.90
13665;DHT22;6905;50.770;6.730;2023-02-01T07:26:19;4.90;99.90
13665;DHT22;6905;50.770;6.730;2023-02-01T07:29:02;4.90;99.90
13665;DHT22;6905;50.770;6.730;2023-02-01T07:36:00;5.00;99.90
13665;DHT22;6905;50.770;6.730;2023-02-01T07:43:51;5.10;99.90
13665;DHT22;6905;50.770;6.730;2023-02-01T07:50:02;5.10;99.90
13665;DHT22;6905;50.770;6.730;2023-02-01T07:55:56;5.20;99.90
13665;DHT22;6905;50.770;6.730;2023-02-01T07:58:53;5.20;99.90
13665;DHT22;6905;50.770;6.730;2023-02-01T08:01:35;5.30;99.90
13665;DHT22;6905;50.770;6.730;2023-02-01T08:04:18;5.30;99.90
13665;DHT22;6905;50.770;6.730;2023-02-01T08:10:07;5.30;99.90
13665;DHT22;6905;50.770;6.730;2023-02-01T08:12:43;5.30;99.90
13665;DHT22;6905;50.770;6.730;2023-02-01T08:15:32;5.30;99.90
13665;DHT22;6905;50.770;6.730;2023-02-01T08:18:17;5.40;99.90
13665;DHT22;6905;50.770;6.730;2023-02-01T08:21:13;5.40;99.90
13665;DHT22;6905;50.770;6.730;2023-02-01T08:23:49;5.40;99.90
13665;DHT22;6905;50.770;6.730;2023-02-01T08:32:14;5.50;99.90
13665;DHT22;6905;50.770;6.730;2023-02-01T08:34:54;5.60;99.90
13665;DHT22;6905;50.770;6.730;2023-02-01T08:37:43;5.70;99.90
13665;DHT22;6905;50.770;6.730;2023-02-01T08:40:25;5.80;99.90
13665;DHT22;6905;50.770;6.730;2023-02-01T08:43:02;5.90;99.90
13665;DHT22;6905;50.770;6.730;2023-02-01T08:45:47;5.90;99.90
13665;DHT22;6905;50.770;6.730;2023-02-01T08:51:30;5.90;99.90
13665;DHT22;6905;50.770;6.730;2023-02-01T08:54:16;5.90;99.90
13665;DHT22;6905;50.770;6.730;2023-02-01T08:56:58;5.90;99.90
13665;DHT22;6905;50.770;6.730;2023-02-01T08:59:39;5.90;99.90
13665;DHT22;6905;50.770;6.730;2023-02-01T09:02:22;6.00;99.90
13665;DHT22;6905;50.770;6.730;2023-02-01T09:05:03;6.00;99.90
13665;DHT22;6905;50.770;6.730;2023-02-01T09:07:48;6.10;99.90
13665;DHT22;6905;50.770;6.730;2023-02-01T09:10:30;6.20;99.90
13665;DHT22;6905;50.770;6.730;2023-02-01T09:13:12;6.30;99.90
13665;DHT22;6905;50.770;6.730;2023-02-01T09:15:41;6.40;99.90
13665;DHT22;6905;50.770;6.730;2023-02-01T09:18:10;6.40;99.90
13665;DHT22;6905;50.770;6.730;2023-02-01T09:20:39;6.30;99.90
13665;DHT22;6905;50.770;6.730;2023-02-01T09:23:23;6.30;99.90
13665;DHT22;6905;50.770;6.730;2023-02-01T09:26:13;6.40;99.90
13665;DHT22;6905;50.770;6.730;2023-02-01T09:28:49;6.50;99.90
13665;DHT22;6905;50.770;6.730;2023-02-01T09:31:35;6.60;99.90
13665;DHT22;6905;50.770;6.730;2023-02-01T09:34:20;6.70;99.90
13665;DHT22;6905;50.770;6.730;2023-02-01T09:37:03;6.80;99.90
13665;DHT22;6905;50.770;6.730;2023-02-01T09:39:47;6.80;99.90
13665;DHT22;6905;50.770;6.730;2023-02-01T09:45:49;6.80;99.90
13665;DHT22;6905;50.770;6.730;2023-02-01T09:48:27;6.70;99.90
13665;DHT22;6905;50.770;6.730;2023-02-01T09:50:59;6.80;99.90
13665;DHT22;6905;50.770;6.730;2023-02-01T09:53:37;6.80;99.90
13665;DHT22;6905;50.770;6.730;2023-02-01T09:56:18;6.90;99.90
13665;DHT22;6905;50.770;6.730;2023-02-01T09:59:02;7.10;99.90
13665;DHT22;6905;50.770;6.730;2023-02-01T10:01:48;7.20;99.90
13665;DHT22;6905;50.770;6.730;2023-02-01T10:04:30;7.30;99.90
13665;DHT22;6905;50.770;6.730;2023-02-01T10:07:06;7.40;99.90
13665;DHT22;6905;50.770;6.730;2023-02-01T10:09:58;7.60;99.90
13665;DHT22;6905;50.770;6.730;2023-02-01T10:15:35;7.70;99.90
13665;DHT22;6905;50.770;6.730;2023-02-01T10:24:01;8.00;99.90
13665;DHT22;6905;50.770;6.730;2023-02-01T10:26:44;8.10;99.90
13665;DHT22;6905;50.770;6.730;2023-02-01T10:29:15;8.30;99.90
13665;DHT22;6905;50.770;6.730;2023-02-01T10:31:55;8.40;99.90
13665;DHT22;6905;50.770;6.730;2023-02-01T10:34:40;8.50;99.90
13665;DHT22;6905;50.770;6.730;2023-02-01T10:37:30;8.40;99.90
13665;DHT22;6905;50.770;6.730;2023-02-01T10:40:15;8.30;99.90
13665;DHT22;6905;50.770;6.730;2023-02-01T10:46:10;8.40;99.90
13665;DHT22;6905;50.770;6.730;2023-02-01T10:48:50;8.50;99.90
13665;DHT22;6905;50.770;6.730;2023-02-01T10:54:31;8.60;99.90
13665;DHT22;6905;50.770;6.730;2023-02-01T10:57:03;8.70;99.90
13665;DHT22;6905;50.770;6.730;2023-02-01T10:59:49;8.80;99.90
13665;DHT22;6905;50.770;6.730;2023-02-01T11:02:40;8.90;99.90
13665;DHT22;6905;50.770;6.730;2023-02-01T11:05:25;9.00;99.90
13665;DHT22;6905;50.770;6.730;2023-02-01T11:08:13;9.00;99.90
13665;DHT22;6905;50.770;6.730;2023-02-01T11:11:04;9.00;99.90
13665;DHT22;6905;50.770;6.730;2023-02-01T11:13:37;9.20;99.90
13665;DHT22;6905;50.770;6.730;2023-02-01T11:19:21;9.10;99.90
13665;DHT22;6905;50.770;6.730;2023-02-01T11:25:13;8.90;99.90
13665;DHT22;6905;50.770;6.730;2023-02-01T11:27:56;9.10;99.90
13665;DHT22;6905;50.770;6.730;2023-02-01T11:30:36;9.20;99.90
13665;DHT22;6905;50.770;6.730;2023-02-01T11:33:33;9.20;99.90
13665;DHT22;6905;50.770;6.730;2023-02-01T11:36:18;9.20;99.90
13665;DHT22;6905;50.770;6.730;2023-02-01T11:39:14;9.30;99.90
13665;DHT22;6905;50.770;6.730;2023-02-01T11:42:11;9.30;99.90
13665;DHT22;6905;50.770;6.730;2023-02-01T11:45:16;9.40;99.90
13665;DHT22;6905;50.770;6.730;2023-02-01T11:48:01;9.40;99.90
13665;DHT22;6905;50.770;6.730;2023-02-01T11:50:44;9.40;99.90
13665;DHT22;6905;50.770;6.730;2023-02-01T11:53:33;9.20;99.90
13665;DHT22;6905;50.770;6.730;2023-02-01T11:56:19;9.20;99.90
13665;DHT22;6905;50.770;6.730;2023-02-01T12:02:20;9.20;99.90
13665;DHT22;6905;50.770;6.730;2023-02-01T12:05:21;9.20;99.90
13665;DHT22;6905;50.770;6.730;2023-02-01T12:11:31;9.50;99.90
13665;DHT22;6905;50.770;6.730;2023-02-01T12:14:47;9.50;99.90
13665;DHT22;6905;50.770;6.730;2023-02-01T12:20:47;9.30;99.90
13665;DHT22;6905;50.770;6.730;2023-02-01T12:23:45;9.30;99.90
13665;DHT22;6905;50.770;6.730;2023-02-01T12:26:44;9.20;99.90
13665;DHT22;6905;50.770;6.730;2023-02-01T12:29:39;9.10;99.90
13665;DHT22;6905;50.770;6.730;2023-02-01T12:35:54;9.00;99.90
13665;DHT22;6905;50.770;6.730;2023-02-01T12:45:20;8.70;99.90
13665;DHT22;6905;50.770;6.730;2023-02-01T13:18:20;8.20;99.90
13665;DHT22;6905;50.770;6.730;2023-02-01T13:21:22;8.20;99.90
13665;DHT22;6905;50.770;6.730;2023-02-01T13:24:06;8.10;99.90
13665;DHT22;6905;50.770;6.730;2023-02-01T13:26:53;8.10;99.90
13665;DHT22;6905;50.770;6.730;2023-02-01T13:29:45;8.00;99.90
13665;DHT22;6905;50.770;6.730;2023-02-01T13:48:01;7.90;99.90
13665;DHT22;6905;50.770;6.730;2023-02-01T13:56:58;7.80;99.90
13665;DHT22;6905;50.770;6.730;2023-02-01T13:59:59;7.90;99.90
13665;DHT22;6905;50.770;6.730;2023-02-01T14:20:51;7.90;99.90
13665;DHT22;6905;50.770;6.730;2023-02-01T14:24:13;7.90;99.90
13665;DHT22;6905;50.770;6.730;2023-02-01T14:27:17;7.90;99.90
13665;DHT22;6905;50.770;6.730;2023-02-01T14:30:14;7.90;99.90
13665;DHT22;6905;50.770;6.730;2023-02-01T14:33:08;7.90;99.90
13665;DHT22;6905;50.770;6.730;2023-02-01T14:36:16;7.90;99.90
13665;DHT22;6905;50.770;6.730;2023-02-01T14:39:18;8.00;99.90
13665;DHT22;6905;50.770;6.730;2023-02-01T14:42:16;8.00;99.90
13665;DHT22;6905;50.770;6.730;2023-02-01T14:48:46;8.00;99.90
13665;DHT22;6905;50.770;6.730;2023-02-01T14:51:34;8.00;99.90
13665;DHT22;6905;50.770;6.730;2023-02-01T14:54:20;8.00;99.90
13665;DHT22;6905;50.770;6.730;2023-02-01T14:57:24;8.00;99.90
13665;DHT22;6905;50.770;6.730;2023-02-01T15:00:14;8.00;99.90
13665;DHT22;6905;50.770;6.730;2023-02-01T15:03:15;8.00;99.90
13665;DHT22;6905;50.770;6.730;2023-02-01T15:17:38;8.10;99.90
13665;DHT22;6905;50.770;6.730;2023-02-01T15:20:31;8.10;99.90
13665;DHT22;6905;50.770;6.730;2023-02-01T15:23:25;8.10;99.90
13665;DHT22;6905;50.770;6.730;2023-02-01T15:26:07;8.10;99.90
13665;DHT22;6905;50.770;6.730;2023-02-01T15:28:51;8.10;99.90
13665;DHT22;6905;50.770;6.730;2023-02-01T15:31:34;8.10;99.90
13665;DHT22;6905;50.770;6.730;2023-02-01T15:34:18;8.10;99.90
13665;DHT22;6905;50.770;6.730;2023-02-01T15:37:04;8.20;99.90
13665;DHT22;6905;50.770;6.730;2023-02-01T15:40:03;8.10;99.90
13665;DHT22;6905;50.770;6.730;2023-02-01T15:42:40;8.10;99.90
13665;DHT22;6905;50.770;6.730;2023-02-01T15:48:29;8.10;99.90
13665;DHT22;6905;50.770;6.730;2023-02-01T15:51:19;8.10;99.90
13665;DHT22;6905;50.770;6.730;2023-02-01T15:54:02;8.10;99.90
13665;DHT22;6905;50.770;6.730;2023-02-01T15:56:37;8.00;99.90
13665;DHT22;6905;50.770;6.730;2023-02-01T16:02:36;7.90;99.90
13665;DHT22;6905;50.770;6.730;2023-02-01T16:05:27;7.90;99.90
13665;DHT22;6905;50.770;6.730;2023-02-01T18:40:16;6.80;99.90
13665;DHT22;6905;50.770;6.730;2023-02-01T18:42:58;6.80;99.90
13665;DHT22;6905;50.770;6.730;2023-02-01T18:48:43;6.80;99.90
13665;DHT22;6905;50.770;6.730;2023-02-01T18:51:28;6.90;99.90
13665;DHT22;6905;50.770;6.730;2023-02-01T18:54:13;6.90;99.90
13665;DHT22;6905;50.770;6.730;2023-02-01T18:57:05;6.90;99.90
13665;DHT22;6905;50.770;6.730;2023-02-01T19:00:02;6.90;99.90
13665;DHT22;6905;50.770;6.730;2023-02-01T19:02:57;6.90;99.90
13665;DHT22;6905;50.770;6.730;2023-02-01T19:05:40;7.00;99.90
13665;DHT22;6905;50.770;6.730;2023-02-01T19:08:25;7.00;99.90
13665;DHT22;6905;50.770;6.730;2023-02-01T19:11:09;6.90;99.90
13665;DHT22;6905;50.770;6.730;2023-02-01T19:55:51;7.10;99.90
13665;DHT22;6905;50.770;6.730;2023-02-01T19:58:42;7.10;99.90
13665;DHT22;6905;50.770;6.730;2023-02-01T20:01:48;7.10;99.90
13665;DHT22;6905;50.770;6.730;2023-02-01T20:04:56;7.10;99.90
13665;DHT22;6905;50.770;6.730;2023-02-01T20:10:42;7.20;99.90
13665;DHT22;6905;50.770;6.730;2023-02-01T20:19:40;7.10;99.90
13665;DHT22;6905;50.770;6.730;2023-02-01T20:25:54;7.20;99.90
13665;DHT22;6905;50.770;6.730;2023-02-01T20:32:07;7.20;99.90
13665;DHT22;6905;50.770;6.730;2023-02-01T20:41:19;7.20;99.90
13665;DHT22;6905;50.770;6.730;2023-02-01T20:44:11;7.20;99.90
13665;DHT22;6905;50.770;6.730;2023-02-01T20:47:16;7.20;99.90
13665;DHT22;6905;50.770;6.730;2023-02-01T20:50:02;7.20;99.90
13665;DHT22;6905;50.770;6.730;2023-02-01T20:52:44;7.20;99.90
13665;DHT22;6905;50.770;6.730;2023-02-01T20:55:30;7.20;99.90
13665;DHT22;6905;50.770;6.730;2023-02-01T21:01:15;7.20;99.90
13665;DHT22;6905;50.770;6.730;2023-02-01T21:03:58;7.30;99.90
13665;DHT22;6905;50.770;6.730;2023-02-01T21:06:28;7.30;99.90
13665;DHT22;6905;50.770;6.730;2023-02-01T21:09:12;7.30;99.90
13665;DHT22;6905;50.770;6.730;2023-02-01T21:11:54;7.30;99.90
13665;DHT22;6905;50.770;6.730;2023-02-01T21:14:37;7.30;99.90
13665;DHT22;6905;50.770;6.730;2023-02-01T21:29:01;7.30;99.90
13665;DHT22;6905;50.770;6.730;2023-02-01T21:32:07;7.30;99.90
13665;DHT22;6905;50.770;6.730;2023-02-01T21:35:10;7.30;99.90
13665;DHT22;6905;50.770;6.730;2023-02-01T21:37:55;7.40;99.90
13665;DHT22;6905;50.770;6.730;2023-02-01T21:40:42;7.30;99.90
13665;DHT22;6905;50.770;6.730;2023-02-01T21:43:31;7.30;99.90
13665;DHT22;6905;50.770;6.730;2023-02-01T21:46:27;7.40;99.90
13665;DHT22;6905;50.770;6.730;2023-02-01T21:49:16;7.40;99.90
13665;DHT22;6905;50.770;6.730;2023-02-01T21:52:04;7.30;99.90
13665;DHT22;6905;50.770;6.730;2023-02-01T21:54:47;7.40;99.90
13665;DHT22;6905;50.770;6.730;2023-02-01T21:58:00;7.40;99.90
13665;DHT22;6905;50.770;6.730;2023-02-01T22:00:51;7.30;99.90
13665;DHT22;6905;50.770;6.730;2023-02-01T22:03:37;7.30;99.90
13665;DHT22;6905;50.770;6.730;2023-02-01T22:06:26;7.40;99.90
13665;DHT22;6905;50.770;6.730;2023-02-01T22:09:11;7.40;99.90
13665;DHT22;6905;50.770;6.730;2023-02-01T22:11:55;7.30;99.90
13665;DHT22;6905;50.770;6.730;2023-02-01T22:14:37;7.30;99.90
13665;DHT22;6905;50.770;6.730;2023-02-01T22:17:22;7.30;99.90
13665;DHT22;6905;50.770;6.730;2023-02-01T22:26:06;7.30;99.90
13665;DHT22;6905;50.770;6.730;2023-02-01T22:28:50;7.30;99.90
13665;DHT22;6905;50.770;6.730;2023-02-01T22:31:33;7.30;99.90
13665;DHT22;6905;50.770;6.730;2023-02-01T22:34:26;7.30;99.90
13665;DHT22;6905;50.770;6.730;2023-02-01T22:37:19;7.30;99.90
13665;DHT22;6905;50.770;6.730;2023-02-01T22:40:02;7.30;99.90
13665;DHT22;6905;50.770;6.730;2023-02-01T22:46:02;7.20;99.90
13665;DHT22;6905;50.770;6.730;2023-02-01T22:48:45;7.20;99.90
13665;DHT22;6905;50.770;6.730;2023-02-01T22:51:28;7.20;99.90
13665;DHT22;6905;50.770;6.730;2023-02-01T22:54:14;7.20;99.90
13665;DHT22;6905;50.770;6.730;2023-02-01T22:57:03;7.20;99.90
13665;DHT22;6905;50.770;6.730;2023-02-01T23:00:07;7.20;99.90
13665;DHT22;6905;50.770;6.730;2023-02-01T23:03:19;7.20;99.90
13665;DHT22;6905;50.770;6.730;2023-02-01T23:06:21;7.20;99.90
13665;DHT22;6905;50.770;6.730;2023-02-01T23:09:08;7.20;99.90
13665;DHT22;6905;50.770;6.730;2023-02-01T23:11:53;7.20;99.90
13665;DHT22;6905;50.770;6.730;2023-02-01T23:14:38;7.30;99.90
13665;DHT22;6905;50.770;6.730;2023-02-01T23:17:37;7.30;99.90
13665;DHT22;6905;50.770;6.730;2023-02-01T23:23:36;7.30;99.90
13665;DHT22;6905;50.770;6.730;2023-02-01T23:26:37;7.30;99.90
13665;DHT22;6905;50.770;6.730;2023-02-01T23:29:45;7.30;99.90
13665;DHT22;6905;50.770;6.730;2023-02-01T23:32:40;7.30;99.90
13665;DHT22;6905;50.770;6.730;2023-02-01T23:35:32;7.20;99.90
13665;DHT22;6905;50.770;6.730;2023-02-01T23:38:26;7.30;99.90
13665;DHT22;6905;50.770;6.730;2023-02-01T23:44:21;7.30;99.90
13665;DHT22;6905;50.770;6.730;2023-02-01T23:47:16;7.30;99.90
13665;DHT22;6905;50.770;6.730;2023-02-01T23:50:06;7.30;99.90
13665;DHT22;6905;50.770;6.730;2023-02-01T23:52:54;7.30;99.90
13665;DHT22;6905;50.770;6.730;2023-02-01T23:55:44;7.30;99.90
13665;DHT22;6905;50.770;6.730;2023-02-01T23:58:40;7.30;99.90
